sensor_id;sensor_type;location;lat;lon;timestamp;P1;durP1;ratioP1;P2;durP2;ratioP2
53513;SDS011;39768;54.148;12.174;2022-09-09T00:00:47;4.38;;;3.17;;
53513;SDS011;39768;54.148;12.174;2022-09-09T00:04:58;5.23;;;2.77;;
53513;SDS011;39768;54.148;12.174;2022-09-09T00:09:13;4.03;;;2.88;;
53513;SDS011;39768;54.148;12.174;2022-09-09T00:13:22;5.70;;;3.33;;
53513;SDS011;39768;54.148;12.174;2022-09-09T00:26:09;6.47;;;4.28;;
53513;SDS011;39768;54.148;12.174;2022-09-09T00:30:34;4.25;;;3.40;;
53513;SDS011;39768;54.148;12.174;2022-09-09T00:34:36;5.70;;;3.35;;
53513;SDS011;39768;54.148;12.174;2022-09-09T00:38:46;7.23;;;3.57;;
53513;SDS011;39768;54.148;12.174;2022-09-09T00:42:53;7.55;;;4.45;;
53513;SDS011;39768;54.148;12.174;2022-09-09T01:04:28;6.30;;;3.75;;
53513;SDS011;39768;54.148;12.174;2022-09-09T01:13:22;7.30;;;3.42;;
53513;SDS011;39768;54.148;12.174;2022-09-09T01:17:28;8.45;;;4.72;;
53513;SDS011;39768;54.148;12.174;2022-09-09T01:21:44;6.15;;;3.47;;
53513;SDS011;39768;54.148;12.174;2022-09-09T01:30:21;7.32;;;3.75;;
53513;SDS011;39768;54.148;12.174;2022-09-09T01:34:25;7.65;;;4.25;;
53513;SDS011;39768;54.148;12.174;2022-09-09T01:38:29;7.65;;;3.55;;
53513;SDS011;39768;54.148;12.174;2022-09-09T01:42:34;6.45;;;3.72;;
53513;SDS011;39768;54.148;12.174;2022-09-09T01:46:36;7.63;;;4.55;;
53513;SDS011;39768;54.148;12.174;2022-09-09T01:50:38;5.97;;;3.40;;
53513;SDS011;39768;54.148;12.174;2022-09-09T01:54:41;6.05;;;3.75;;
53513;SDS011;39768;54.148;12.174;2022-09-09T02:03:07;5.13;;;3.20;;
53513;SDS011;39768;54.148;12.174;2022-09-09T02:07:30;5.25;;;3.80;;
53513;SDS011;39768;54.148;12.174;2022-09-09T02:12:13;6.50;;;3.10;;
53513;SDS011;39768;54.148;12.174;2022-09-09T02:20:36;4.90;;;3.53;;
53513;SDS011;39768;54.148;12.174;2022-09-09T02:24:39;4.38;;;2.45;;
53513;SDS011;39768;54.148;12.174;2022-09-09T02:28:48;3.42;;;3.03;;
53513;SDS011;39768;54.148;12.174;2022-09-09T02:32:52;4.10;;;2.75;;
53513;SDS011;39768;54.148;12.174;2022-09-09T02:37:16;5.38;;;2.92;;
53513;SDS011;39768;54.148;12.174;2022-09-09T02:41:25;4.85;;;3.05;;
53513;SDS011;39768;54.148;12.174;2022-09-09T02:45:44;4.45;;;3.25;;
53513;SDS011;39768;54.148;12.174;2022-09-09T02:50:17;5.68;;;3.17;;
53513;SDS011;39768;54.148;12.174;2022-09-09T02:54:31;3.47;;;2.80;;
53513;SDS011;39768;54.148;12.174;2022-09-09T02:58:39;7.97;;;2.95;;
53513;SDS011;39768;54.148;12.174;2022-09-09T03:02:41;4.25;;;2.55;;
53513;SDS011;39768;54.148;12.174;2022-09-09T03:06:43;3.88;;;3.00;;
53513;SDS011;39768;54.148;12.174;2022-09-09T03:10:52;3.37;;;2.87;;
53513;SDS011;39768;54.148;12.174;2022-09-09T03:14:58;5.90;;;3.13;;
53513;SDS011;39768;54.148;12.174;2022-09-09T03:19:01;5.22;;;3.15;;
53513;SDS011;39768;54.148;12.174;2022-09-09T03:23:03;6.25;;;2.40;;
53513;SDS011;39768;54.148;12.174;2022-09-09T03:27:05;4.05;;;2.92;;
53513;SDS011;39768;54.148;12.174;2022-09-09T03:31:10;5.65;;;3.35;;
53513;SDS011;39768;54.148;12.174;2022-09-09T03:35:20;3.90;;;2.72;;
53513;SDS011;39768;54.148;12.174;2022-09-09T03:39:22;11.95;;;3.20;;
53513;SDS011;39768;54.148;12.174;2022-09-09T03:43:24;6.93;;;4.03;;
53513;SDS011;39768;54.148;12.174;2022-09-09T03:47:27;5.57;;;2.97;;
53513;SDS011;39768;54.148;12.174;2022-09-09T03:51:35;6.30;;;3.40;;
53513;SDS011;39768;54.148;12.174;2022-09-09T03:55:38;4.90;;;4.03;;
53513;SDS011;39768;54.148;12.174;2022-09-09T03:59:40;10.30;;;4.07;;
53513;SDS011;39768;54.148;12.174;2022-09-09T04:03:41;5.72;;;2.83;;
53513;SDS011;39768;54.148;12.174;2022-09-09T04:07:43;6.40;;;3.58;;
53513;SDS011;39768;54.148;12.174;2022-09-09T04:11:45;7.05;;;3.28;;
53513;SDS011;39768;54.148;12.174;2022-09-09T04:15:55;6.03;;;3.05;;
53513;SDS011;39768;54.148;12.174;2022-09-09T04:19:58;3.70;;;2.78;;
53513;SDS011;39768;54.148;12.174;2022-09-09T04:24:00;4.65;;;2.70;;
53513;SDS011;39768;54.148;12.174;2022-09-09T04:28:02;8.80;;;4.45;;
53513;SDS011;39768;54.148;12.174;2022-09-09T04:32:04;4.32;;;3.35;;
53513;SDS011;39768;54.148;12.174;2022-09-09T04:36:07;6.03;;;3.30;;
53513;SDS011;39768;54.148;12.174;2022-09-09T04:40:09;5.47;;;3.50;;
53513;SDS011;39768;54.148;12.174;2022-09-09T04:44:11;6.95;;;3.95;;
53513;SDS011;39768;54.148;12.174;2022-09-09T04:48:13;7.47;;;3.70;;
53513;SDS011;39768;54.148;12.174;2022-09-09T04:52:15;7.93;;;4.30;;
53513;SDS011;39768;54.148;12.174;2022-09-09T04:56:18;5.90;;;3.95;;
53513;SDS011;39768;54.148;12.174;2022-09-09T05:00:32;6.22;;;3.63;;
53513;SDS011;39768;54.148;12.174;2022-09-09T05:04:36;9.82;;;4.18;;
53513;SDS011;39768;54.148;12.174;2022-09-09T05:08:38;9.65;;;4.47;;
53513;SDS011;39768;54.148;12.174;2022-09-09T05:12:42;11.80;;;5.13;;
53513;SDS011;39768;54.148;12.174;2022-09-09T05:16:44;13.35;;;4.60;;
53513;SDS011;39768;54.148;12.174;2022-09-09T05:20:46;6.80;;;3.72;;
53513;SDS011;39768;54.148;12.174;2022-09-09T05:24:48;7.05;;;3.08;;
53513;SDS011;39768;54.148;12.174;2022-09-09T05:28:52;12.63;;;4.35;;
53513;SDS011;39768;54.148;12.174;2022-09-09T05:32:57;7.40;;;3.85;;
53513;SDS011;39768;54.148;12.174;2022-09-09T05:36:59;5.07;;;3.72;;
53513;SDS011;39768;54.148;12.174;2022-09-09T05:41:01;9.10;;;4.20;;
53513;SDS011;39768;54.148;12.174;2022-09-09T05:45:05;11.55;;;4.82;;
53513;SDS011;39768;54.148;12.174;2022-09-09T05:49:09;12.45;;;5.07;;
53513;SDS011;39768;54.148;12.174;2022-09-09T05:53:12;9.10;;;4.50;;
53513;SDS011;39768;54.148;12.174;2022-09-09T05:57:15;9.82;;;5.82;;
53513;SDS011;39768;54.148;12.174;2022-09-09T06:01:28;14.50;;;5.50;;
53513;SDS011;39768;54.148;12.174;2022-09-09T06:05:32;10.00;;;4.90;;
53513;SDS011;39768;54.148;12.174;2022-09-09T06:09:34;7.00;;;4.18;;
53513;SDS011;39768;54.148;12.174;2022-09-09T06:13:36;10.18;;;4.95;;
53513;SDS011;39768;54.148;12.174;2022-09-09T06:17:40;13.10;;;5.50;;
53513;SDS011;39768;54.148;12.174;2022-09-09T06:21:43;11.13;;;4.82;;
53513;SDS011;39768;54.148;12.174;2022-09-09T06:25:46;9.90;;;4.95;;
53513;SDS011;39768;54.148;12.174;2022-09-09T06:29:48;14.32;;;6.03;;
53513;SDS011;39768;54.148;12.174;2022-09-09T06:33:51;12.10;;;5.38;;
53513;SDS011;39768;54.148;12.174;2022-09-09T06:37:54;9.73;;;4.35;;
53513;SDS011;39768;54.148;12.174;2022-09-09T06:41:57;10.18;;;5.28;;
53513;SDS011;39768;54.148;12.174;2022-09-09T06:46:18;6.70;;;4.40;;
53513;SDS011;39768;54.148;12.174;2022-09-09T06:50:21;7.35;;;4.40;;
53513;SDS011;39768;54.148;12.174;2022-09-09T06:54:24;6.93;;;5.10;;
53513;SDS011;39768;54.148;12.174;2022-09-09T06:58:27;10.63;;;4.55;;
53513;SDS011;39768;54.148;12.174;2022-09-09T07:02:32;14.48;;;3.78;;
53513;SDS011;39768;54.148;12.174;2022-09-09T07:06:44;13.02;;;4.85;;
53513;SDS011;39768;54.148;12.174;2022-09-09T07:10:52;6.38;;;4.45;;
53513;SDS011;39768;54.148;12.174;2022-09-09T07:14:56;9.63;;;5.07;;
53513;SDS011;39768;54.148;12.174;2022-09-09T07:18:58;12.38;;;4.82;;
53513;SDS011;39768;54.148;12.174;2022-09-09T07:23:02;10.00;;;4.82;;
53513;SDS011;39768;54.148;12.174;2022-09-09T07:27:04;7.22;;;4.15;;
53513;SDS011;39768;54.148;12.174;2022-09-09T07:31:08;8.38;;;4.78;;
53513;SDS011;39768;54.148;12.174;2022-09-09T07:35:14;11.30;;;5.60;;
53513;SDS011;39768;54.148;12.174;2022-09-09T07:39:16;12.57;;;5.80;;
53513;SDS011;39768;54.148;12.174;2022-09-09T07:43:26;9.43;;;5.03;;
53513;SDS011;39768;54.148;12.174;2022-09-09T07:47:28;9.90;;;5.63;;
53513;SDS011;39768;54.148;12.174;2022-09-09T07:51:31;12.40;;;5.82;;
53513;SDS011;39768;54.148;12.174;2022-09-09T07:55:35;8.70;;;4.65;;
53513;SDS011;39768;54.148;12.174;2022-09-09T07:59:36;7.60;;;4.28;;
53513;SDS011;39768;54.148;12.174;2022-09-09T08:03:39;10.98;;;5.45;;
53513;SDS011;39768;54.148;12.174;2022-09-09T08:07:40;11.38;;;5.82;;
53513;SDS011;39768;54.148;12.174;2022-09-09T08:11:42;12.43;;;6.25;;
53513;SDS011;39768;54.148;12.174;2022-09-09T08:15:45;10.35;;;5.10;;
53513;SDS011;39768;54.148;12.174;2022-09-09T08:19:47;12.02;;;5.72;;
53513;SDS011;39768;54.148;12.174;2022-09-09T08:23:54;12.02;;;5.72;;
53513;SDS011;39768;54.148;12.174;2022-09-09T08:27:58;11.93;;;5.93;;
53513;SDS011;39768;54.148;12.174;2022-09-09T08:32:00;11.20;;;4.93;;
53513;SDS011;39768;54.148;12.174;2022-09-09T08:36:03;11.98;;;4.82;;
53513;SDS011;39768;54.148;12.174;2022-09-09T08:40:22;12.98;;;5.13;;
53513;SDS011;39768;54.148;12.174;2022-09-09T08:48:40;9.07;;;5.07;;
53513;SDS011;39768;54.148;12.174;2022-09-09T08:52:54;6.75;;;4.07;;
53513;SDS011;39768;54.148;12.174;2022-09-09T08:57:18;6.03;;;4.03;;
53513;SDS011;39768;54.148;12.174;2022-09-09T09:01:32;11.68;;;4.97;;
53513;SDS011;39768;54.148;12.174;2022-09-09T09:05:47;9.60;;;4.72;;
53513;SDS011;39768;54.148;12.174;2022-09-09T09:10:02;9.63;;;4.60;;
53513;SDS011;39768;54.148;12.174;2022-09-09T09:14:34;13.50;;;5.07;;
53513;SDS011;39768;54.148;12.174;2022-09-09T09:18:40;12.70;;;6.07;;
53513;SDS011;39768;54.148;12.174;2022-09-09T09:26:53;15.43;;;5.53;;
53513;SDS011;39768;54.148;12.174;2022-09-09T09:30:56;8.60;;;4.05;;
53513;SDS011;39768;54.148;12.174;2022-09-09T09:35:06;9.20;;;4.88;;
53513;SDS011;39768;54.148;12.174;2022-09-09T09:39:29;9.15;;;4.90;;
53513;SDS011;39768;54.148;12.174;2022-09-09T09:43:53;9.43;;;3.75;;
53513;SDS011;39768;54.148;12.174;2022-09-09T09:47:59;10.48;;;4.15;;
53513;SDS011;39768;54.148;12.174;2022-09-09T09:52:12;7.93;;;4.50;;
53513;SDS011;39768;54.148;12.174;2022-09-09T09:56:28;9.68;;;5.15;;
53513;SDS011;39768;54.148;12.174;2022-09-09T10:00:31;6.65;;;4.75;;
53513;SDS011;39768;54.148;12.174;2022-09-09T10:04:39;7.25;;;4.13;;
53513;SDS011;39768;54.148;12.174;2022-09-09T10:08:45;12.80;;;4.45;;
53513;SDS011;39768;54.148;12.174;2022-09-09T10:12:53;6.80;;;4.28;;
53513;SDS011;39768;54.148;12.174;2022-09-09T10:25:55;5.85;;;4.55;;
53513;SDS011;39768;54.148;12.174;2022-09-09T10:34:04;9.15;;;4.60;;
53513;SDS011;39768;54.148;12.174;2022-09-09T10:38:12;16.35;;;4.65;;
53513;SDS011;39768;54.148;12.174;2022-09-09T10:42:17;7.40;;;4.15;;
53513;SDS011;39768;54.148;12.174;2022-09-09T10:51:00;7.50;;;3.95;;
53513;SDS011;39768;54.148;12.174;2022-09-09T10:55:26;6.38;;;3.80;;
53513;SDS011;39768;54.148;12.174;2022-09-09T10:59:35;8.25;;;4.28;;
53513;SDS011;39768;54.148;12.174;2022-09-09T11:03:42;7.13;;;3.78;;
53513;SDS011;39768;54.148;12.174;2022-09-09T11:07:50;7.45;;;2.95;;
53513;SDS011;39768;54.148;12.174;2022-09-09T11:11:59;5.43;;;2.55;;
53513;SDS011;39768;54.148;12.174;2022-09-09T11:16:05;6.05;;;3.03;;
53513;SDS011;39768;54.148;12.174;2022-09-09T11:20:14;3.17;;;2.75;;
53513;SDS011;39768;54.148;12.174;2022-09-09T11:24:23;5.60;;;2.70;;
53513;SDS011;39768;54.148;12.174;2022-09-09T11:41:34;4.32;;;2.92;;
53513;SDS011;39768;54.148;12.174;2022-09-09T11:45:38;3.47;;;2.55;;
53513;SDS011;39768;54.148;12.174;2022-09-09T11:49:42;3.67;;;3.08;;
53513;SDS011;39768;54.148;12.174;2022-09-09T11:54:22;3.85;;;3.28;;
53513;SDS011;39768;54.148;12.174;2022-09-09T11:58:33;2.80;;;2.40;;
53513;SDS011;39768;54.148;12.174;2022-09-09T12:02:47;4.33;;;2.70;;
53513;SDS011;39768;54.148;12.174;2022-09-09T12:06:52;4.70;;;2.45;;
53513;SDS011;39768;54.148;12.174;2022-09-09T12:10:58;5.93;;;2.33;;
53513;SDS011;39768;54.148;12.174;2022-09-09T12:23:22;6.13;;;2.35;;
53513;SDS011;39768;54.148;12.174;2022-09-09T12:27:34;1.77;;;1.60;;
53513;SDS011;39768;54.148;12.174;2022-09-09T12:31:46;5.60;;;2.05;;
53513;SDS011;39768;54.148;12.174;2022-09-09T12:36:07;2.28;;;1.40;;
53513;SDS011;39768;54.148;12.174;2022-09-09T12:40:21;9.38;;;2.50;;
53513;SDS011;39768;54.148;12.174;2022-09-09T12:44:25;2.13;;;1.25;;
53513;SDS011;39768;54.148;12.174;2022-09-09T12:48:33;1.00;;;1.00;;
53513;SDS011;39768;54.148;12.174;2022-09-09T12:52:38;1.27;;;1.17;;
53513;SDS011;39768;54.148;12.174;2022-09-09T12:56:40;2.08;;;1.52;;
53513;SDS011;39768;54.148;12.174;2022-09-09T13:00:49;0.98;;;0.90;;
53513;SDS011;39768;54.148;12.174;2022-09-09T13:05:05;1.65;;;1.42;;
53513;SDS011;39768;54.148;12.174;2022-09-09T13:09:13;1.55;;;1.42;;
53513;SDS011;39768;54.148;12.174;2022-09-09T13:13:27;1.50;;;1.38;;
53513;SDS011;39768;54.148;12.174;2022-09-09T13:17:42;4.13;;;1.33;;
53513;SDS011;39768;54.148;12.174;2022-09-09T13:21:43;1.75;;;1.38;;
53513;SDS011;39768;54.148;12.174;2022-09-09T13:25:59;3.95;;;1.38;;
53513;SDS011;39768;54.148;12.174;2022-09-09T13:30:19;6.65;;;1.55;;
53513;SDS011;39768;54.148;12.174;2022-09-09T13:34:28;2.05;;;1.60;;
53513;SDS011;39768;54.148;12.174;2022-09-09T13:38:36;5.50;;;1.98;;
53513;SDS011;39768;54.148;12.174;2022-09-09T13:42:41;1.52;;;1.42;;
53513;SDS011;39768;54.148;12.174;2022-09-09T13:46:43;1.40;;;1.30;;
53513;SDS011;39768;54.148;12.174;2022-09-09T13:50:53;4.18;;;2.50;;
53513;SDS011;39768;54.148;12.174;2022-09-09T13:54:56;3.85;;;1.80;;
53513;SDS011;39768;54.148;12.174;2022-09-09T13:58:59;4.53;;;1.83;;
53513;SDS011;39768;54.148;12.174;2022-09-09T14:03:00;2.95;;;1.63;;
53513;SDS011;39768;54.148;12.174;2022-09-09T14:07:05;1.58;;;1.48;;
53513;SDS011;39768;54.148;12.174;2022-09-09T14:11:07;1.27;;;1.15;;
53513;SDS011;39768;54.148;12.174;2022-09-09T14:15:13;2.05;;;1.40;;
53513;SDS011;39768;54.148;12.174;2022-09-09T14:19:15;1.15;;;1.05;;
53513;SDS011;39768;54.148;12.174;2022-09-09T14:23:17;1.40;;;1.25;;
53513;SDS011;39768;54.148;12.174;2022-09-09T14:27:18;1.17;;;1.08;;
53513;SDS011;39768;54.148;12.174;2022-09-09T14:31:20;1.20;;;1.10;;
53513;SDS011;39768;54.148;12.174;2022-09-09T14:35:22;0.70;;;0.70;;
53513;SDS011;39768;54.148;12.174;2022-09-09T14:39:23;5.95;;;1.02;;
53513;SDS011;39768;54.148;12.174;2022-09-09T14:43:25;0.60;;;0.55;;
53513;SDS011;39768;54.148;12.174;2022-09-09T14:47:28;0.98;;;0.68;;
53513;SDS011;39768;54.148;12.174;2022-09-09T14:51:31;0.70;;;0.47;;
53513;SDS011;39768;54.148;12.174;2022-09-09T14:55:33;1.85;;;0.40;;
53513;SDS011;39768;54.148;12.174;2022-09-09T14:59:34;0.40;;;0.38;;
53513;SDS011;39768;54.148;12.174;2022-09-09T15:03:36;0.60;;;0.40;;
53513;SDS011;39768;54.148;12.174;2022-09-09T15:07:38;0.17;;;0.17;;
53513;SDS011;39768;54.148;12.174;2022-09-09T15:11:40;1.65;;;0.55;;
53513;SDS011;39768;54.148;12.174;2022-09-09T15:15:42;0.55;;;0.35;;
53513;SDS011;39768;54.148;12.174;2022-09-09T15:19:44;0.68;;;0.45;;
53513;SDS011;39768;54.148;12.174;2022-09-09T15:23:45;0.43;;;0.38;;
53513;SDS011;39768;54.148;12.174;2022-09-09T15:27:48;0.50;;;0.50;;
53513;SDS011;39768;54.148;12.174;2022-09-09T15:31:50;1.70;;;0.80;;
53513;SDS011;39768;54.148;12.174;2022-09-09T15:35:51;0.40;;;0.40;;
53513;SDS011;39768;54.148;12.174;2022-09-09T15:39:53;0.55;;;0.55;;
53513;SDS011;39768;54.148;12.174;2022-09-09T15:43:55;0.50;;;0.50;;
53513;SDS011;39768;54.148;12.174;2022-09-09T15:48:01;3.95;;;0.70;;
53513;SDS011;39768;54.148;12.174;2022-09-09T15:52:03;1.05;;;0.85;;
53513;SDS011;39768;54.148;12.174;2022-09-09T15:56:05;0.50;;;0.50;;
53513;SDS011;39768;54.148;12.174;2022-09-09T16:00:07;0.50;;;0.38;;
53513;SDS011;39768;54.148;12.174;2022-09-09T16:04:10;1.08;;;0.50;;
53513;SDS011;39768;54.148;12.174;2022-09-09T16:08:11;0.50;;;0.50;;
53513;SDS011;39768;54.148;12.174;2022-09-09T16:12:14;1.08;;;0.77;;
53513;SDS011;39768;54.148;12.174;2022-09-09T16:16:16;0.70;;;0.70;;
53513;SDS011;39768;54.148;12.174;2022-09-09T16:20:20;0.80;;;0.63;;
53513;SDS011;39768;54.148;12.174;2022-09-09T16:24:22;3.10;;;0.73;;
53513;SDS011;39768;54.148;12.174;2022-09-09T16:28:24;0.70;;;0.70;;
53513;SDS011;39768;54.148;12.174;2022-09-09T16:32:26;3.45;;;1.00;;
53513;SDS011;39768;54.148;12.174;2022-09-09T16:36:28;1.17;;;1.08;;
53513;SDS011;39768;54.148;12.174;2022-09-09T16:40:33;0.85;;;0.85;;
53513;SDS011;39768;54.148;12.174;2022-09-09T16:44:36;2.03;;;0.95;;
53513;SDS011;39768;54.148;12.174;2022-09-09T16:48:37;2.60;;;0.98;;
53513;SDS011;39768;54.148;12.174;2022-09-09T16:52:39;0.85;;;0.80;;
53513;SDS011;39768;54.148;12.174;2022-09-09T16:56:41;3.78;;;1.05;;
53513;SDS011;39768;54.148;12.174;2022-09-09T17:00:44;1.33;;;1.10;;
53513;SDS011;39768;54.148;12.174;2022-09-09T17:04:47;1.83;;;1.42;;
53513;SDS011;39768;54.148;12.174;2022-09-09T17:08:56;1.15;;;1.05;;
53513;SDS011;39768;54.148;12.174;2022-09-09T17:12:58;1.58;;;1.30;;
53513;SDS011;39768;54.148;12.174;2022-09-09T17:17:00;2.90;;;1.45;;
53513;SDS011;39768;54.148;12.174;2022-09-09T17:21:22;1.52;;;1.42;;
53513;SDS011;39768;54.148;12.174;2022-09-09T17:25:26;56.15;;;17.00;;
53513;SDS011;39768;54.148;12.174;2022-09-09T17:29:27;12.60;;;6.20;;
53513;SDS011;39768;54.148;12.174;2022-09-09T17:33:29;3.00;;;1.85;;
53513;SDS011;39768;54.148;12.174;2022-09-09T17:37:34;5.78;;;1.00;;
53513;SDS011;39768;54.148;12.174;2022-09-09T17:41:37;1.20;;;0.80;;
53513;SDS011;39768;54.148;12.174;2022-09-09T17:45:40;0.65;;;0.63;;
53513;SDS011;39768;54.148;12.174;2022-09-09T17:49:41;0.38;;;0.38;;
53513;SDS011;39768;54.148;12.174;2022-09-09T17:53:43;0.10;;;0.10;;
53513;SDS011;39768;54.148;12.174;2022-09-09T17:57:50;0.40;;;0.40;;
53513;SDS011;39768;54.148;12.174;2022-09-09T18:01:51;0.20;;;0.20;;
53513;SDS011;39768;54.148;12.174;2022-09-09T18:05:58;0.20;;;0.20;;
53513;SDS011;39768;54.148;12.174;2022-09-09T18:10:01;0.30;;;0.30;;
53513;SDS011;39768;54.148;12.174;2022-09-09T18:14:02;0.28;;;0.28;;
53513;SDS011;39768;54.148;12.174;2022-09-09T18:18:05;0.30;;;0.30;;
53513;SDS011;39768;54.148;12.174;2022-09-09T18:22:07;0.10;;;0.10;;
53513;SDS011;39768;54.148;12.174;2022-09-09T18:26:09;0.25;;;0.25;;
53513;SDS011;39768;54.148;12.174;2022-09-09T18:30:12;0.20;;;0.20;;
53513;SDS011;39768;54.148;12.174;2022-09-09T18:34:15;0.30;;;0.30;;
53513;SDS011;39768;54.148;12.174;2022-09-09T18:38:18;0.95;;;0.40;;
53513;SDS011;39768;54.148;12.174;2022-09-09T18:42:19;0.52;;;0.47;;
53513;SDS011;39768;54.148;12.174;2022-09-09T18:46:22;0.30;;;0.30;;
53513;SDS011;39768;54.148;12.174;2022-09-09T18:50:24;0.43;;;0.43;;
53513;SDS011;39768;54.148;12.174;2022-09-09T18:54:27;1.33;;;0.60;;
53513;SDS011;39768;54.148;12.174;2022-09-09T18:58:30;0.50;;;0.50;;
53513;SDS011;39768;54.148;12.174;2022-09-09T19:02:32;0.75;;;0.75;;
53513;SDS011;39768;54.148;12.174;2022-09-09T19:06:36;1.63;;;1.40;;
53513;SDS011;39768;54.148;12.174;2022-09-09T19:10:40;0.65;;;0.63;;
53513;SDS011;39768;54.148;12.174;2022-09-09T19:14:42;0.35;;;0.35;;
53513;SDS011;39768;54.148;12.174;2022-09-09T19:18:44;0.55;;;0.47;;
53513;SDS011;39768;54.148;12.174;2022-09-09T19:22:48;0.45;;;0.35;;
53513;SDS011;39768;54.148;12.174;2022-09-09T19:26:50;0.30;;;0.30;;
53513;SDS011;39768;54.148;12.174;2022-09-09T19:30:53;0.38;;;0.38;;
53513;SDS011;39768;54.148;12.174;2022-09-09T19:34:56;1.52;;;1.42;;
53513;SDS011;39768;54.148;12.174;2022-09-09T19:38:58;1.55;;;0.95;;
53513;SDS011;39768;54.148;12.174;2022-09-09T19:43:00;0.30;;;0.30;;
53513;SDS011;39768;54.148;12.174;2022-09-09T19:47:02;1.08;;;0.55;;
53513;SDS011;39768;54.148;12.174;2022-09-09T19:51:04;3.97;;;0.75;;
53513;SDS011;39768;54.148;12.174;2022-09-09T19:55:10;0.70;;;0.60;;
53513;SDS011;39768;54.148;12.174;2022-09-09T19:59:11;0.93;;;0.85;;
53513;SDS011;39768;54.148;12.174;2022-09-09T20:03:13;1.75;;;0.60;;
53513;SDS011;39768;54.148;12.174;2022-09-09T20:07:20;1.52;;;1.23;;
53513;SDS011;39768;54.148;12.174;2022-09-09T20:11:21;1.48;;;1.00;;
53513;SDS011;39768;54.148;12.174;2022-09-09T20:15:23;0.85;;;0.85;;
53513;SDS011;39768;54.148;12.174;2022-09-09T20:19:25;0.35;;;0.35;;
53513;SDS011;39768;54.148;12.174;2022-09-09T20:23:27;0.20;;;0.20;;
53513;SDS011;39768;54.148;12.174;2022-09-09T20:27:29;1.67;;;0.43;;
53513;SDS011;39768;54.148;12.174;2022-09-09T20:31:32;0.40;;;0.40;;
53513;SDS011;39768;54.148;12.174;2022-09-09T20:35:40;0.30;;;0.30;;
53513;SDS011;39768;54.148;12.174;2022-09-09T20:39:42;1.52;;;0.47;;
53513;SDS011;39768;54.148;12.174;2022-09-09T20:43:47;0.70;;;0.70;;
53513;SDS011;39768;54.148;12.174;2022-09-09T20:47:49;0.30;;;0.30;;
53513;SDS011;39768;54.148;12.174;2022-09-09T20:51:51;0.63;;;0.40;;
53513;SDS011;39768;54.148;12.174;2022-09-09T20:55:57;1.55;;;0.52;;
53513;SDS011;39768;54.148;12.174;2022-09-09T21:00:00;0.63;;;0.50;;
53513;SDS011;39768;54.148;12.174;2022-09-09T21:04:01;0.40;;;0.40;;
53513;SDS011;39768;54.148;12.174;2022-09-09T21:08:03;0.30;;;0.30;;
53513;SDS011;39768;54.148;12.174;2022-09-09T21:12:04;0.70;;;0.45;;
53513;SDS011;39768;54.148;12.174;2022-09-09T21:16:07;0.30;;;0.30;;
53513;SDS011;39768;54.148;12.174;2022-09-09T21:20:12;0.52;;;0.50;;
53513;SDS011;39768;54.148;12.174;2022-09-09T21:24:14;0.30;;;0.30;;
53513;SDS011;39768;54.148;12.174;2022-09-09T21:28:16;0.40;;;0.40;;
53513;SDS011;39768;54.148;12.174;2022-09-09T21:32:18;0.40;;;0.40;;
53513;SDS011;39768;54.148;12.174;2022-09-09T21:36:20;0.35;;;0.35;;
53513;SDS011;39768;54.148;12.174;2022-09-09T21:40:22;3.42;;;0.30;;
53513;SDS011;39768;54.148;12.174;2022-09-09T21:44:23;0.32;;;0.32;;
53513;SDS011;39768;54.148;12.174;2022-09-09T21:48:26;0.70;;;0.50;;
53513;SDS011;39768;54.148;12.174;2022-09-09T21:52:28;0.40;;;0.40;;
53513;SDS011;39768;54.148;12.174;2022-09-09T21:56:29;0.40;;;0.40;;
53513;SDS011;39768;54.148;12.174;2022-09-09T22:00:31;0.35;;;0.35;;
53513;SDS011;39768;54.148;12.174;2022-09-09T22:04:34;0.45;;;0.30;;
53513;SDS011;39768;54.148;12.174;2022-09-09T22:08:36;0.63;;;0.47;;
53513;SDS011;39768;54.148;12.174;2022-09-09T22:12:38;0.40;;;0.40;;
53513;SDS011;39768;54.148;12.174;2022-09-09T22:16:39;0.30;;;0.30;;
53513;SDS011;39768;54.148;12.174;2022-09-09T22:20:42;3.97;;;0.43;;
53513;SDS011;39768;54.148;12.174;2022-09-09T22:24:45;0.35;;;0.35;;
53513;SDS011;39768;54.148;12.174;2022-09-09T22:28:46;0.30;;;0.30;;
53513;SDS011;39768;54.148;12.174;2022-09-09T22:32:48;0.60;;;0.45;;
53513;SDS011;39768;54.148;12.174;2022-09-09T22:36:50;0.55;;;0.45;;
53513;SDS011;39768;54.148;12.174;2022-09-09T22:40:51;0.40;;;0.40;;
53513;SDS011;39768;54.148;12.174;2022-09-09T22:44:53;0.45;;;0.45;;
53513;SDS011;39768;54.148;12.174;2022-09-09T22:48:55;0.70;;;0.40;;
53513;SDS011;39768;54.148;12.174;2022-09-09T22:52:56;0.60;;;0.45;;
53513;SDS011;39768;54.148;12.174;2022-09-09T22:56:58;7.38;;;0.45;;
53513;SDS011;39768;54.148;12.174;2022-09-09T23:01:05;0.75;;;0.50;;
53513;SDS011;39768;54.148;12.174;2022-09-09T23:05:08;0.30;;;0.30;;
53513;SDS011;39768;54.148;12.174;2022-09-09T23:09:10;0.38;;;0.38;;
53513;SDS011;39768;54.148;12.174;2022-09-09T23:13:12;1.95;;;0.65;;
53513;SDS011;39768;54.148;12.174;2022-09-09T23:17:14;0.73;;;0.60;;
53513;SDS011;39768;54.148;12.174;2022-09-09T23:21:16;0.50;;;0.50;;
53513;SDS011;39768;54.148;12.174;2022-09-09T23:25:18;0.60;;;0.50;;
53513;SDS011;39768;54.148;12.174;2022-09-09T23:29:21;3.10;;;0.52;;
53513;SDS011;39768;54.148;12.174;2022-09-09T23:33:22;1.25;;;0.80;;
53513;SDS011;39768;54.148;12.174;2022-09-09T23:37:24;3.65;;;0.80;;
53513;SDS011;39768;54.148;12.174;2022-09-09T23:41:26;0.50;;;0.50;;
53513;SDS011;39768;54.148;12.174;2022-09-09T23:45:28;1.10;;;0.77;;
53513;SDS011;39768;54.148;12.174;2022-09-09T23:49:30;1.30;;;0.70;;
53513;SDS011;39768;54.148;12.174;2022-09-09T23:53:33;3.78;;;1.33;;
53513;SDS011;39768;54.148;12.174;2022-09-09T23:57:36;1.35;;;1.05;;
